Time;durP1;ratioP1;P1;durP2;ratioP2;P2;SDS_P1;SDS_P2;PMS_P1;PMS_P2;Temp;Humidity;BMP_temperature;BMP_pressure;BME280_temperature;BME280_humidity;BME280_pressure;Samples;Min_cycle;Max_cycle;Signal;HPM_P1;HPM_P2
2021/05/02 00:02:07;;;;;;;43.15;7.40;;;17.80;84.50;;;;;;5014017;28;20113;-74
2021/05/02 00:04:33;;;;;;;38.72;6.80;;;17.80;84.30;;;;;;5014113;28;20548;-73
2021/05/02 00:07:02;;;;;;;41.60;8.05;;;17.70;84.20;;;;;;5014008;28;20109;-74
2021/05/02 00:09:31;;;;;;;41.05;7.93;;;17.70;84.20;;;;;;5014084;28;20052;-74
2021/05/02 00:11:58;;;;;;;44.88;7.63;;;17.70;84.10;;;;;;5014135;28;20471;-73
2021/05/02 00:14:24;;;;;;;44.53;8.13;;;17.70;84.50;;;;;;5013923;28;20029;-73
2021/05/02 00:16:52;;;;;;;52.70;10.27;;;17.60;84.30;;;;;;5013691;28;20018;-74
2021/05/02 00:19:19;;;;;;;46.75;8.07;;;17.60;84.70;;;;;;5013712;28;20053;-73
2021/05/02 00:21:47;;;;;;;44.03;6.95;;;17.50;84.80;;;;;;5013751;28;20017;-73
2021/05/02 00:24:13;;;;;;;48.13;8.88;;;17.50;85.10;;;;;;5014137;28;20044;-73
2021/05/02 00:26:40;;;;;;;47.85;8.02;;;17.40;85.20;;;;;;5014217;28;20018;-73
2021/05/02 00:29:09;;;;;;;49.92;8.65;;;17.40;85.60;;;;;;5013805;28;20037;-73
2021/05/02 00:31:39;;;;;;;48.88;9.00;;;17.40;86.00;;;;;;5013619;28;20486;-75
2021/05/02 00:34:05;;;;;;;45.50;8.52;;;17.40;85.60;;;;;;5013704;28;20109;-75
2021/05/02 00:36:31;;;;;;;55.75;8.98;;;17.40;86.20;;;;;;5012462;28;20101;-73
2021/05/02 00:38:57;;;;;;;44.72;8.02;;;17.30;86.20;;;;;;5013753;28;20029;-75
2021/05/02 00:41:32;;;;;;;56.72;9.48;;;17.30;86.20;;;;;;5013853;28;20072;-75
2021/05/02 00:44:24;;;;;;;46.35;8.55;;;17.30;86.60;;;;;;5013371;28;20034;-74
2021/05/02 00:46:58;;;;;;;50.53;8.63;;;17.30;86.70;;;;;;5013673;28;20057;-75
2021/05/02 00:49:35;;;;;;;40.15;7.88;;;17.30;87.00;;;;;;5013768;28;20080;-74
2021/05/02 00:52:10;;;;;;;42.58;7.68;;;17.30;87.00;;;;;;5013678;28;20513;-75
2021/05/02 00:54:43;;;;;;;37.28;8.35;;;17.30;87.00;;;;;;5012622;28;20038;-74
2021/05/02 00:57:15;;;;;;;;;;;17.30;87.00;;;;;;5014017;28;20018;-74
2021/05/02 00:59:49;;;;;;;33.30;6.70;;;17.30;86.80;;;;;;5010316;28;20328;-77
2021/05/02 01:02:15;;;;;;;33.97;7.65;;;17.30;86.60;;;;;;5010412;28;20044;-75
2021/05/02 01:04:44;;;;;;;28.17;6.60;;;17.30;86.60;;;;;;5011763;28;20022;-74
2021/05/02 01:07:18;;;;;;;39.22;8.50;;;17.30;86.60;;;;;;5012685;28;20077;-74
2021/05/02 01:09:44;;;;;;;37.92;8.10;;;17.30;86.70;;;;;;5013372;28;20466;-74
2021/05/02 01:12:12;;;;;;;33.88;6.82;;;17.30;86.70;;;;;;5013363;28;20033;-73
2021/05/02 01:14:44;;;;;;;36.58;7.05;;;17.30;86.40;;;;;;5013210;28;20072;-74
2021/05/02 01:17:12;;;;;;;29.60;7.00;;;17.30;86.10;;;;;;5013233;28;20033;-74
2021/05/02 01:19:38;;;;;;;30.88;6.03;;;17.30;86.00;;;;;;5013149;28;20033;-74
2021/05/02 01:22:11;;;;;;;25.00;6.45;;;17.30;85.90;;;;;;5012791;28;20540;-73
2021/05/02 01:24:37;;;;;;;28.30;5.80;;;17.30;86.30;;;;;;5011972;28;20036;-74
2021/05/02 01:27:04;;;;;;;26.38;5.82;;;17.30;86.20;;;;;;5013038;28;20022;-74
2021/05/02 01:29:30;;;;;;;27.77;6.53;;;17.20;85.90;;;;;;5012725;28;20026;-74
2021/05/02 01:31:56;;;;;;;28.63;5.97;;;17.20;86.00;;;;;;5013052;28;20030;-74
2021/05/02 01:34:22;;;;;;;23.05;4.75;;;17.20;86.10;;;;;;5013192;28;20045;-74
2021/05/02 01:36:48;;;;;;;26.60;5.18;;;17.20;85.80;;;;;;5012821;28;20062;-74
2021/05/02 01:39:14;;;;;;;32.08;5.00;;;17.10;85.40;;;;;;5012905;28;20124;-74
2021/05/02 01:41:40;;;;;;;31.27;6.13;;;17.10;85.40;;;;;;5012936;28;20494;-73
2021/05/02 01:44:05;;;;;;;26.75;5.90;;;17.10;85.80;;;;;;5012653;28;20116;-74
2021/05/02 01:46:40;;;;;;;23.30;5.47;;;17.10;85.80;;;;;;5012915;28;20026;-74
2021/05/02 01:49:09;;;;;;;26.80;5.47;;;17.10;85.80;;;;;;5012894;28;20030;-73
2021/05/02 01:51:37;;;;;;;42.25;6.85;;;17.10;85.90;;;;;;5012566;28;20462;-73
2021/05/02 01:54:04;;;;;;;26.45;5.28;;;17.00;85.90;;;;;;5012908;28;20050;-73
2021/05/02 01:56:32;;;;;;;41.67;6.57;;;17.10;86.00;;;;;;5012829;28;20022;-73
2021/05/02 01:59:00;;;;;;;22.95;5.13;;;17.10;86.00;;;;;;5012483;28;20501;-74
2021/05/02 02:01:27;;;;;;;30.83;5.75;;;17.00;85.80;;;;;;5012825;28;20033;-74
2021/05/02 02:03:56;;;;;;;27.02;6.47;;;17.00;85.70;;;;;;5012773;28;20123;-74
2021/05/02 02:06:22;;;;;;;23.85;5.20;;;17.00;85.90;;;;;;5016288;28;20018;-74
2021/05/02 02:08:48;;;;;;;20.98;5.07;;;17.10;85.80;;;;;;5015977;28;20497;-74
2021/05/02 02:11:13;;;;;;;25.35;5.05;;;17.10;85.80;;;;;;5016522;28;20018;-74
2021/05/02 02:13:40;;;;;;;19.50;4.85;;;17.00;85.70;;;;;;5016301;28;20040;-74
2021/05/02 02:16:07;;;;;;;22.17;5.38;;;17.00;85.80;;;;;;5016138;28;20025;-74
2021/05/02 02:18:33;;;;;;;15.43;4.50;;;17.10;85.80;;;;;;5015552;28;20092;-74
2021/05/02 02:21:00;;;;;;;20.63;5.43;;;17.10;85.80;;;;;;5016023;28;20021;-73
2021/05/02 02:23:31;;;;;;;17.20;5.05;;;17.10;85.90;;;;;;5016079;28;20045;-72
2021/05/02 02:26:03;;;;;;;15.65;4.85;;;17.10;85.60;;;;;;5016116;28;20022;-73
2021/05/02 02:28:30;;;;;;;16.83;4.45;;;17.10;85.70;;;;;;5016046;28;20026;-74
2021/05/02 02:30:57;;;;;;;13.65;4.78;;;17.10;85.50;;;;;;5016069;28;20018;-75
2021/05/02 02:33:28;;;;;;;16.40;5.10;;;17.10;85.50;;;;;;5016279;28;20080;-73
2021/05/02 02:35:54;;;;;;;13.00;5.00;;;17.10;85.70;;;;;;5015765;28;20033;-74
2021/05/02 02:38:26;;;;;;;18.13;5.00;;;17.10;85.80;;;;;;5015515;28;20030;-74
2021/05/02 02:40:56;;;;;;;20.60;5.20;;;17.10;85.80;;;;;;5015770;28;20014;-73
2021/05/02 02:43:29;;;;;;;18.25;4.57;;;17.10;85.90;;;;;;5015335;28;20369;-74
2021/05/02 02:46:05;;;;;;;13.52;4.47;;;17.10;85.90;;;;;;5015820;28;20041;-74
2021/05/02 02:48:34;;;;;;;14.38;5.53;;;17.00;86.10;;;;;;5015777;28;20041;-73
2021/05/02 02:51:01;;;;;;;15.07;5.15;;;17.10;86.20;;;;;;5015447;28;20399;-73
2021/05/02 02:53:30;;;;;;;15.90;5.28;;;17.10;85.80;;;;;;5015212;28;20372;-73
2021/05/02 02:56:12;;;;;;;16.30;5.65;;;17.00;85.70;;;;;;5015359;28;20054;-74
2021/05/02 02:58:57;;;;;;;19.17;4.80;;;17.00;85.60;;;;;;5015417;28;20077;-74
2021/05/02 03:01:26;;;;;;;16.60;5.07;;;17.00;85.80;;;;;;5015418;28;20018;-74
2021/05/02 03:03:55;;;;;;;16.95;5.10;;;17.00;85.20;;;;;;5015384;28;20048;-73
2021/05/02 03:06:24;;;;;;;13.60;4.97;;;17.00;85.10;;;;;;5015182;28;20045;-73
2021/05/02 03:08:54;;;;;;;15.85;5.30;;;17.00;85.00;;;;;;5015244;28;20428;-75
2021/05/02 03:11:19;;;;;;;24.40;5.20;;;17.00;84.80;;;;;;5015125;28;20022;-73
2021/05/02 03:13:45;;;;;;;14.60;4.20;;;17.00;85.00;;;;;;5015334;28;20536;-72
2021/05/02 03:16:11;;;;;;;18.05;4.53;;;17.00;85.00;;;;;;5014327;28;20076;-72
2021/05/02 03:18:51;;;;;;;18.00;4.95;;;17.00;84.70;;;;;;5013716;28;20088;-73
2021/05/02 03:21:21;;;;;;;18.90;4.70;;;17.00;84.50;;;;;;5015005;28;20549;-73
2021/05/02 03:23:52;;;;;;;19.02;4.85;;;17.10;84.30;;;;;;5015034;28;20037;-73
2021/05/02 03:26:21;;;;;;;15.48;4.60;;;17.00;84.20;;;;;;5014905;28;20017;-73
2021/05/02 03:29:10;;;;;;;25.63;4.45;;;17.00;84.20;;;;;;5014577;28;20475;-73
2021/05/02 03:31:38;;;;;;;14.07;4.00;;;17.00;84.50;;;;;;5014486;28;20029;-74
2021/05/02 03:34:06;;;;;;;18.48;4.53;;;16.90;84.50;;;;;;5014572;28;20024;-73
2021/05/02 03:36:43;;;;;;;17.33;4.60;;;16.90;84.80;;;;;;5014965;28;20053;-73
2021/05/02 03:39:10;;;;;;;13.40;4.70;;;16.90;84.60;;;;;;5014661;28;20018;-73
2021/05/02 03:41:36;;;;;;;20.50;5.15;;;16.90;84.60;;;;;;5014896;28;20117;-72
2021/05/02 03:44:03;;;;;;;20.17;4.75;;;16.90;84.80;;;;;;5014468;28;20026;-73
2021/05/02 03:46:30;;;;;;;15.25;4.40;;;16.90;85.10;;;;;;5014645;28;20034;-74
2021/05/02 03:48:59;;;;;;;22.67;4.28;;;16.90;85.10;;;;;;5014397;28;20026;-73
2021/05/02 03:51:27;;;;;;;19.08;4.57;;;16.90;85.10;;;;;;5014366;28;20057;-73
2021/05/02 03:53:54;;;;;;;17.33;4.45;;;16.90;85.30;;;;;;5014336;28;20156;-73
2021/05/02 03:56:49;;;;;;;16.80;4.72;;;16.80;85.10;;;;;;5014186;28;20501;-73
2021/05/02 03:59:23;;;;;;;13.68;4.53;;;16.90;85.10;;;;;;5009874;28;20049;-73
2021/05/02 04:01:51;;;;;;;10.50;3.95;;;16.80;85.30;;;;;;5014467;28;20053;-72
2021/05/02 04:04:23;;;;;;;13.27;4.18;;;16.80;85.60;;;;;;5014224;28;20038;-73
2021/05/02 04:06:50;;;;;;;19.98;5.40;;;16.70;85.70;;;;;;5014415;28;20018;-73
2021/05/02 04:09:17;;;;;;;17.40;4.72;;;16.70;85.90;;;;;;5014018;28;20119;-73
2021/05/02 04:11:44;;;;;;;14.32;4.95;;;16.70;85.60;;;;;;5013941;28;20022;-74
2021/05/02 04:14:13;;;;;;;11.48;4.57;;;16.70;85.60;;;;;;5014079;28;20028;-74
2021/05/02 04:16:39;;;;;;;17.20;4.60;;;16.70;85.70;;;;;;5029393;28;20045;-73
2021/05/02 04:19:08;;;;;;;21.30;5.05;;;16.70;85.90;;;;;;5013995;28;20030;-73
2021/05/02 04:21:35;;;;;;;17.13;5.45;;;16.70;86.10;;;;;;5013934;28;20538;-73
2021/05/02 04:24:01;;;;;;;18.77;4.63;;;16.70;86.00;;;;;;5013830;28;20485;-74
2021/05/02 04:26:27;;;;;;;17.90;4.90;;;16.70;86.10;;;;;;5013832;28;20022;-73
2021/05/02 04:28:53;;;;;;;24.98;5.55;;;16.60;86.30;;;;;;5013579;28;20108;-73
2021/05/02 04:31:19;;;;;;;18.23;4.47;;;16.60;86.50;;;;;;5013614;28;20026;-73
2021/05/02 04:33:46;;;;;;;14.13;4.18;;;16.60;86.50;;;;;;5013772;28;20528;-73
2021/05/02 04:36:12;;;;;;;16.50;4.40;;;16.60;86.40;;;;;;5013702;28;20028;-73
2021/05/02 04:38:38;;;;;;;14.55;3.65;;;16.60;86.30;;;;;;5013615;28;20030;-73
2021/05/02 04:41:04;;;;;;;14.90;4.28;;;16.60;86.20;;;;;;5013855;28;20505;-72
2021/05/02 04:43:30;;;;;;;18.20;4.25;;;16.60;86.00;;;;;;5013364;28;20056;-72
2021/05/02 04:45:55;;;;;;;14.50;4.28;;;16.60;86.20;;;;;;5013348;28;20479;-73
2021/05/02 04:48:21;;;;;;;14.43;4.07;;;16.60;86.30;;;;;;5013639;28;20036;-73
2021/05/02 04:50:47;;;;;;;18.95;4.85;;;16.60;86.30;;;;;;5013611;28;20123;-73
2021/05/02 04:53:13;;;;;;;18.60;4.18;;;16.60;86.40;;;;;;5013587;28;20026;-74
2021/05/02 04:55:39;;;;;;;23.33;4.05;;;16.60;86.10;;;;;;5013421;28;20108;-73
2021/05/02 04:58:06;;;;;;;11.98;4.00;;;16.60;86.30;;;;;;5013247;28;20022;-73
2021/05/02 05:00:35;;;;;;;11.15;3.78;;;16.60;86.30;;;;;;5013345;28;20029;-73
2021/05/02 05:03:02;;;;;;;15.93;3.92;;;16.60;86.00;;;;;;5013274;28;20466;-73
2021/05/02 05:05:28;;;;;;;15.95;3.58;;;16.60;85.70;;;;;;5013386;28;20026;-74
2021/05/02 05:07:54;;;;;;;15.88;3.80;;;16.60;85.70;;;;;;5013312;28;20026;-73
2021/05/02 05:10:20;;;;;;;17.77;3.80;;;16.60;85.70;;;;;;5013328;28;20033;-73
2021/05/02 05:12:45;;;;;;;9.20;3.35;;;16.60;85.70;;;;;;5013155;28;20026;-74
2021/05/02 05:15:11;;;;;;;11.52;3.40;;;16.60;85.90;;;;;;5013199;28;20033;-74
2021/05/02 05:17:37;;;;;;;8.38;2.60;;;16.60;85.70;;;;;;5013164;28;20018;-73
2021/05/02 05:20:04;;;;;;;8.02;2.45;;;16.50;85.50;;;;;;5013384;28;20030;-73
2021/05/02 05:22:30;;;;;;;9.55;2.38;;;16.50;85.50;;;;;;5013280;28;20084;-73
2021/05/02 05:24:57;;;;;;;8.80;2.35;;;16.50;85.30;;;;;;5013673;28;20026;-74
2021/05/02 05:27:23;;;;;;;10.50;2.72;;;16.50;85.50;;;;;;5012997;28;20033;-73
2021/05/02 05:29:49;;;;;;;10.43;2.60;;;16.40;85.50;;;;;;5013291;28;20030;-73
2021/05/02 05:32:14;;;;;;;8.90;2.28;;;16.40;85.90;;;;;;5013219;28;20061;-74
2021/05/02 05:34:40;;;;;;;6.30;2.58;;;16.40;86.00;;;;;;5012842;28;20091;-73
2021/05/02 05:37:06;;;;;;;7.45;2.25;;;16.40;86.10;;;;;;5013404;28;20029;-73
2021/05/02 05:39:31;;;;;;;14.50;2.95;;;16.40;86.10;;;;;;5014670;28;20030;-73
2021/05/02 05:41:57;;;;;;;10.55;2.80;;;16.40;86.10;;;;;;5016947;28;20030;-73
2021/05/02 05:44:23;;;;;;;10.52;2.42;;;16.40;86.30;;;;;;5016884;28;20104;-74
2021/05/02 05:46:49;;;;;;;8.40;2.50;;;16.40;86.30;;;;;;5016854;28;20033;-73
2021/05/02 05:49:17;;;;;;;10.00;2.53;;;16.50;86.60;;;;;;5016748;28;20030;-73
2021/05/02 05:51:43;;;;;;;8.35;2.55;;;16.50;86.20;;;;;;5016353;28;20125;-73
2021/05/02 05:54:09;;;;;;;19.02;3.13;;;16.50;86.00;;;;;;5015440;28;20449;-73
2021/05/02 05:56:35;;;;;;;11.48;3.13;;;16.40;85.90;;;;;;5016449;28;20034;-73
2021/05/02 05:59:01;;;;;;;12.70;3.00;;;16.50;86.20;;;;;;5016495;28;20025;-73
2021/05/02 06:01:27;;;;;;;14.50;3.03;;;16.50;86.30;;;;;;5016586;28;20034;-73
2021/05/02 06:03:53;;;;;;;13.23;2.75;;;16.50;86.40;;;;;;5016808;28;20044;-73
2021/05/02 06:06:18;;;;;;;9.60;2.67;;;16.50;86.30;;;;;;5016739;28;20101;-73
2021/05/02 06:08:44;;;;;;;11.90;2.92;;;16.50;85.90;;;;;;5016017;28;20064;-73
2021/05/02 06:11:10;;;;;;;11.45;3.20;;;16.50;86.40;;;;;;5014193;28;20026;-73
2021/05/02 06:13:35;;;;;;;7.97;2.50;;;16.50;85.70;;;;;;5014802;28;20474;-73
2021/05/02 06:16:01;;;;;;;10.48;2.72;;;16.40;85.90;;;;;;5016106;28;20133;-73
2021/05/02 06:18:27;;;;;;;11.10;2.33;;;16.40;86.00;;;;;;5016713;28;20059;-73
2021/05/02 06:20:54;;;;;;;9.07;2.30;;;16.40;85.80;;;;;;5016148;28;20477;-73
2021/05/02 06:23:20;;;;;;;11.07;2.35;;;16.40;86.00;;;;;;5016171;28;20033;-73
2021/05/02 06:25:45;;;;;;;8.68;2.40;;;16.40;86.20;;;;;;5016025;28;20037;-73
2021/05/02 06:28:11;;;;;;;10.55;2.38;;;16.40;86.20;;;;;;5015760;28;20099;-73
2021/05/02 06:30:37;;;;;;;10.30;2.47;;;16.40;86.00;;;;;;5015543;28;20026;-73
2021/05/02 06:33:02;;;;;;;9.88;2.08;;;16.40;85.70;;;;;;5015568;28;20049;-73
2021/05/02 06:35:28;;;;;;;12.98;2.55;;;16.40;85.60;;;;;;5015783;28;20033;-73
2021/05/02 06:37:54;;;;;;;8.55;1.95;;;16.40;85.40;;;;;;5015484;28;20086;-74
2021/05/02 06:40:20;;;;;;;12.90;2.60;;;16.40;85.40;;;;;;5016019;28;20033;-73
2021/05/02 06:42:46;;;;;;;14.98;2.60;;;16.40;86.00;;;;;;5015721;28;20568;-74
2021/05/02 06:45:13;;;;;;;9.40;2.00;;;16.40;85.40;;;;;;5014431;28;20029;-72
2021/05/02 06:47:39;;;;;;;13.05;2.25;;;16.40;85.10;;;;;;5015726;28;20021;-73
2021/05/02 06:50:05;;;;;;;14.02;2.30;;;16.50;85.20;;;;;;5015159;28;20049;-73
2021/05/02 06:52:31;;;;;;;16.40;2.40;;;16.50;85.20;;;;;;5014355;28;20018;-73
2021/05/02 06:54:57;;;;;;;13.23;2.20;;;16.50;85.20;;;;;;5015399;28;20475;-73
2021/05/02 06:57:22;;;;;;;14.70;2.70;;;16.50;85.30;;;;;;5015341;28;20026;-73
2021/05/02 06:59:48;;;;;;;12.23;2.05;;;16.50;85.20;;;;;;5015454;28;20030;-73
2021/05/02 07:02:14;;;;;;;11.13;2.22;;;16.50;85.30;;;;;;5015411;28;20355;-72
2021/05/02 07:04:39;;;;;;;13.40;2.00;;;16.50;85.50;;;;;;5015431;28;20037;-73
2021/05/02 07:07:05;;;;;;;9.45;2.10;;;16.50;85.00;;;;;;5015202;28;20034;-73
2021/05/02 07:09:31;;;;;;;8.95;2.05;;;16.50;84.70;;;;;;5015206;28;20500;-73
2021/05/02 07:11:58;;;;;;;13.05;2.72;;;16.50;84.60;;;;;;5015317;28;20026;-74
2021/05/02 07:14:24;;;;;;;9.13;2.22;;;16.50;84.70;;;;;;5015236;28;20030;-73
2021/05/02 07:16:50;;;;;;;8.70;2.25;;;16.50;84.90;;;;;;5013333;28;20029;-73
2021/05/02 07:19:16;;;;;;;10.75;1.90;;;16.50;85.10;;;;;;5012484;28;20596;-72
2021/05/02 07:21:42;;;;;;;16.65;2.25;;;16.50;84.70;;;;;;5012144;28;20038;-72
2021/05/02 07:24:08;;;;;;;12.95;2.70;;;16.50;84.50;;;;;;5014136;28;20121;-73
2021/05/02 07:26:34;;;;;;;6.70;1.90;;;16.50;84.50;;;;;;5014857;28;20022;-72
2021/05/02 07:29:00;;;;;;;11.27;2.00;;;16.50;84.80;;;;;;5012239;28;20041;-72
2021/05/02 07:31:26;;;;;;;7.95;2.00;;;16.50;84.30;;;;;;5012231;28;20025;-71
2021/05/02 07:33:53;;;;;;;13.68;2.28;;;16.50;84.50;;;;;;5014025;28;20442;-72
2021/05/02 07:36:19;;;;;;;15.43;1.92;;;16.50;83.40;;;;;;5014869;28;20080;-71
2021/05/02 07:38:45;;;;;;;11.90;1.88;;;16.50;84.00;;;;;;5014371;28;20032;-70
2021/05/02 07:41:13;;;;;;;12.38;2.85;;;16.50;84.00;;;;;;5015086;28;20049;-73
2021/05/02 07:43:40;;;;;;;11.20;1.98;;;16.50;84.20;;;;;;5014694;28;20034;-71
2021/05/02 07:46:06;;;;;;;9.63;2.17;;;16.50;84.30;;;;;;5014580;28;20121;-73
2021/05/02 07:48:32;;;;;;;9.57;1.85;;;16.50;84.70;;;;;;5014630;28;20382;-71
2021/05/02 07:50:58;;;;;;;14.88;2.50;;;16.50;83.20;;;;;;5013053;28;20057;-71
2021/05/02 07:53:24;;;;;;;11.95;2.35;;;16.40;83.70;;;;;;5014470;28;20034;-71
2021/05/02 07:55:50;;;;;;;11.18;1.95;;;16.50;84.10;;;;;;5014460;28;20028;-72
2021/05/02 07:58:16;;;;;;;11.75;2.55;;;16.40;83.60;;;;;;5014420;28;20494;-70
2021/05/02 08:00:41;;;;;;;17.05;2.22;;;16.40;83.80;;;;;;5013703;28;20025;-69
2021/05/02 08:03:07;;;;;;;17.05;2.75;;;16.40;84.30;;;;;;5013129;28;20038;-70
2021/05/02 08:05:33;;;;;;;10.48;2.45;;;16.50;84.10;;;;;;5013658;28;20026;-71
2021/05/02 08:07:59;;;;;;;10.43;2.17;;;16.40;83.90;;;;;;5013685;28;20057;-70
2021/05/02 08:10:26;;;;;;;12.75;2.38;;;16.40;83.90;;;;;;5014008;28;20497;-71
2021/05/02 08:12:55;;;;;;;13.95;1.98;;;;;;;;;;5007385;28;20032;-71
2021/05/02 08:15:22;;;;;;;15.93;2.22;;;16.50;83.60;;;;;;5013364;28;20046;-73
2021/05/02 08:17:47;;;;;;;13.20;1.95;;;16.50;83.50;;;;;;5013911;28;20109;-72
2021/05/02 08:20:14;;;;;;;16.25;2.72;;;16.50;83.40;;;;;;5013492;28;20108;-72
2021/05/02 08:22:39;;;;;;;14.23;3.28;;;16.50;83.80;;;;;;5013294;28;20045;-72
2021/05/02 08:25:07;;;;;;;15.25;3.00;;;16.50;84.00;;;;;;5006068;28;20038;-71
2021/05/02 08:27:33;;;;;;;12.63;3.22;;;16.50;84.10;;;;;;5001056;28;20037;-72
2021/05/02 08:29:59;;;;;;;12.32;2.40;;;16.50;84.10;;;;;;5001992;28;20113;-71
2021/05/02 08:32:24;;;;;;;10.23;2.25;;;16.50;83.20;;;;;;5004106;28;20500;-72
2021/05/02 08:34:51;;;;;;;15.85;2.40;;;16.50;82.60;;;;;;4995623;28;20057;-72
2021/05/02 08:37:16;;;;;;;19.15;2.70;;;16.50;82.40;;;;;;4990691;28;20101;-70
2021/05/02 08:39:42;;;;;;;15.63;2.40;;;16.50;82.80;;;;;;4991056;28;20165;-73
2021/05/02 08:42:08;;;;;;;16.45;2.50;;;16.50;82.10;;;;;;4993208;28;20030;-74
2021/05/02 08:44:34;;;;;;;17.23;2.80;;;16.50;81.10;;;;;;4993822;28;20045;-69
2021/05/02 08:47:00;;;;;;;16.88;2.50;;;16.50;81.60;;;;;;4993599;28;20467;-71
2021/05/02 08:49:26;;;;;;;19.60;2.63;;;16.50;81.40;;;;;;4993104;28;20031;-72
2021/05/02 08:51:52;;;;;;;17.63;2.50;;;16.50;81.60;;;;;;4992994;28;20085;-74
2021/05/02 08:54:18;;;;;;;17.48;2.95;;;16.50;81.00;;;;;;4992374;28;20495;-73
2021/05/02 08:56:44;;;;;;;13.45;2.50;;;16.50;81.10;;;;;;4993789;28;20018;-73
2021/05/02 08:59:11;;;;;;;12.07;2.17;;;16.50;81.00;;;;;;4993534;28;20030;-74
2021/05/02 09:01:37;;;;;;;14.20;2.30;;;16.50;80.30;;;;;;4993783;28;20383;-70
2021/05/02 09:04:04;;;;;;;14.27;2.15;;;16.50;80.50;;;;;;4993390;28;20038;-73
2021/05/02 09:06:31;;;;;;;16.92;2.42;;;16.50;80.20;;;;;;4993593;28;20027;-73
2021/05/02 09:09:08;;;;;;;13.02;2.10;;;16.50;80.60;;;;;;4993686;28;20023;-72
2021/05/02 09:11:38;;;;;;;14.93;2.30;;;16.40;81.10;;;;;;4993337;28;20418;-70
2021/05/02 09:14:10;;;;;;;19.42;3.60;;;16.50;81.50;;;;;;4991144;28;20113;-70
2021/05/02 09:16:58;;;;;;;18.38;2.88;;;16.50;81.30;;;;;;4994929;28;20038;-70
2021/05/02 09:19:26;;;;;;;20.55;2.90;;;16.50;81.50;;;;;;4996019;28;20379;-70
2021/05/02 09:21:53;;;;;;;16.17;2.75;;;16.50;80.80;;;;;;4997643;28;20026;-70
2021/05/02 09:24:29;;;;;;;17.60;2.22;;;16.50;80.80;;;;;;4997549;28;20447;-69
2021/05/02 09:27:03;;;;;;;15.55;2.70;;;16.50;81.20;;;;;;4997203;28;20375;-70
2021/05/02 09:29:33;;;;;;;23.02;2.75;;;16.50;81.10;;;;;;4997474;28;20125;-70
2021/05/02 09:31:59;;;;;;;20.90;3.08;;;16.50;80.90;;;;;;4997637;28;20014;-69
2021/05/02 09:34:25;;;;;;;20.52;2.70;;;16.50;80.90;;;;;;4997577;28;20483;-69
2021/05/02 09:36:54;;;;;;;17.85;2.92;;;16.50;81.00;;;;;;4997186;28;20095;-70
2021/05/02 09:39:53;;;;;;;17.77;2.92;;;16.50;81.30;;;;;;4997613;28;20367;-70
2021/05/02 09:42:38;;;;;;;20.90;3.90;;;16.50;81.90;;;;;;4997377;28;20446;-70
2021/05/02 09:45:08;;;;;;;18.48;2.83;;;16.40;82.20;;;;;;4997354;28;20468;-70
2021/05/02 09:47:34;;;;;;;19.92;3.58;;;16.40;82.70;;;;;;4997372;28;20065;-71
2021/05/02 09:50:19;;;;;;;15.32;3.00;;;16.40;83.10;;;;;;5002121;28;20108;-70
2021/05/02 09:53:02;;;;;;;19.55;3.60;;;16.40;83.00;;;;;;4996461;28;20041;-70
2021/05/02 09:55:28;;;;;;;22.13;4.05;;;16.40;83.30;;;;;;4997066;28;20061;-71
2021/05/02 09:57:55;;;;;;;13.88;2.97;;;16.40;83.40;;;;;;4996913;28;20471;-72
2021/05/02 10:00:31;;;;;;;18.58;3.10;;;16.30;83.20;;;;;;4996974;28;20022;-71
2021/05/02 10:02:57;;;;;;;13.80;3.10;;;16.30;83.80;;;;;;4997048;28;20383;-70
2021/05/02 10:05:23;;;;;;;16.60;3.40;;;16.30;83.60;;;;;;4996979;28;20475;-70
2021/05/02 10:07:50;;;;;;;22.27;4.47;;;16.30;83.80;;;;;;4996813;28;20023;-71
2021/05/02 10:10:17;;;;;;;20.70;3.90;;;16.20;83.80;;;;;;4996861;28;20037;-70
2021/05/02 10:12:48;;;;;;;21.70;3.53;;;16.20;83.30;;;;;;4995249;28;20030;-70
2021/05/02 10:15:15;;;;;;;14.60;3.08;;;16.10;83.40;;;;;;4996384;28;20022;-69
2021/05/02 10:17:41;;;;;;;22.35;3.92;;;16.10;83.70;;;;;;4996538;28;20110;-71
2021/05/02 10:20:11;;;;;;;14.98;3.10;;;16.00;83.70;;;;;;4996635;28;20530;-69
2021/05/02 10:22:37;;;;;;;14.75;3.50;;;16.00;83.70;;;;;;4996462;28;20030;-70
2021/05/02 10:25:03;;;;;;;16.90;3.05;;;16.00;84.10;;;;;;4996443;28;20077;-70
2021/05/02 10:27:29;;;;;;;24.50;3.97;;;16.00;84.70;;;;;;4996411;28;20030;-70
2021/05/02 10:29:58;;;;;;;21.23;4.28;;;16.00;84.70;;;;;;4996254;28;20471;-71
2021/05/02 10:32:34;;;;;;;16.95;2.78;;;16.00;84.80;;;;;;4996407;28;20045;-71
2021/05/02 10:35:11;;;;;;;18.00;3.55;;;16.00;84.50;;;;;;4996450;28;20030;-71
2021/05/02 10:37:39;;;;;;;18.80;2.80;;;16.10;84.30;;;;;;4996347;28;20031;-71
2021/05/02 10:40:29;;;;;;;21.73;3.35;;;16.10;84.30;;;;;;4995942;28;20026;-70
2021/05/02 10:43:02;;;;;;;18.83;3.17;;;16.10;84.10;;;;;;4996248;28;20042;-71
2021/05/02 10:45:33;;;;;;;17.27;3.10;;;16.10;84.40;;;;;;4996053;28;20471;-71
2021/05/02 10:48:00;;;;;;;18.52;3.45;;;16.10;84.10;;;;;;4995573;28;20015;-71
2021/05/02 10:50:33;;;;;;;17.50;3.03;;;16.10;83.20;;;;;;4995791;28;20046;-70
2021/05/02 10:53:03;;;;;;;;;;;16.20;83.50;;;;;;4996148;28;20022;-70
2021/05/02 10:55:49;;;;;;;16.88;2.38;;;16.20;83.30;;;;;;4995685;28;19906;-70
2021/05/02 10:58:26;;;;;;;12.27;2.55;;;16.20;83.40;;;;;;4994093;28;20030;-71
2021/05/02 11:00:56;;;;;;;23.02;2.97;;;16.20;83.40;;;;;;4993210;28;20057;-71
2021/05/02 11:03:40;;;;;;;25.35;2.78;;;16.30;82.50;;;;;;4993621;28;20402;-71
2021/05/02 11:06:09;;;;;;;19.02;2.92;;;16.30;83.10;;;;;;4995966;28;20023;-71
2021/05/02 11:08:48;;;;;;;17.95;2.78;;;16.30;83.10;;;;;;4995641;28;20494;-71
2021/05/02 11:11:29;;;;;;;10.18;2.05;;;16.40;82.60;;;;;;4995830;28;20098;-71
2021/05/02 11:14:07;;;;;;;23.23;3.10;;;16.40;82.20;;;;;;4995695;28;20041;-71
2021/05/02 11:16:49;;;;;;;19.55;2.78;;;16.40;81.50;;;;;;4995498;28;20033;-71
2021/05/02 11:19:24;;;;;;;18.27;2.30;;;16.50;80.20;;;;;;4995312;28;20035;-71
2021/05/02 11:21:52;;;;;;;23.42;3.28;;;16.40;80.70;;;;;;4995483;28;20034;-70
2021/05/02 11:24:22;;;;;;;17.17;2.97;;;16.50;80.10;;;;;;4992371;28;20041;-70
2021/05/02 11:32:33;;;;;;;18.90;2.88;;;16.60;78.40;;;;;;4994814;28;20062;-69
2021/05/02 11:35:06;;;;;;;19.58;2.55;;;16.60;78.90;;;;;;5002269;28;20034;-70
2021/05/02 11:37:42;;;;;;;14.90;2.70;;;16.70;79.40;;;;;;5010530;28;20030;-70
2021/05/02 11:40:29;;;;;;;15.70;2.60;;;16.70;78.80;;;;;;5014590;28;20040;-70
2021/05/02 11:43:09;;;;;;;12.80;2.40;;;16.70;79.80;;;;;;5013371;28;20383;-70
2021/05/02 11:45:50;;;;;;;12.85;2.50;;;16.70;80.20;;;;;;5013367;28;20076;-71
2021/05/02 11:48:18;;;;;;;12.40;2.50;;;16.70;80.60;;;;;;5013529;28;20393;-71
2021/05/02 11:50:45;;;;;;;18.02;2.97;;;16.70;80.90;;;;;;5013121;28;20050;-71
2021/05/02 11:53:11;;;;;;;15.35;3.08;;;16.60;80.90;;;;;;5012606;28;20022;-70
2021/05/02 11:55:40;;;;;;;18.58;2.70;;;16.70;81.00;;;;;;5013137;28;20037;-72
2021/05/02 11:58:14;;;;;;;16.02;2.88;;;16.70;78.60;;;;;;5013193;28;20478;-71
2021/05/02 12:00:45;;;;;;;16.05;2.70;;;16.70;79.00;;;;;;5013561;28;20018;-71
2021/05/02 12:03:16;;;;;;;14.90;2.60;;;16.80;78.30;;;;;;5012867;28;20030;-71
2021/05/02 12:05:52;;;;;;;14.27;2.45;;;16.80;77.40;;;;;;5013852;28;20033;-71
2021/05/02 12:08:22;;;;;;;15.90;2.50;;;16.80;78.20;;;;;;5012640;28;20026;-71
2021/05/02 12:11:08;;;;;;;19.27;4.05;;;16.80;78.40;;;;;;5013520;28;20367;-70
2021/05/02 12:13:44;;;;;;;16.88;2.75;;;16.80;78.90;;;;;;5013611;28;20433;-71
2021/05/02 12:16:13;;;;;;;12.98;2.53;;;16.90;79.70;;;;;;5013448;28;20479;-71
2021/05/02 12:19:04;;;;;;;25.60;2.80;;;16.90;79.80;;;;;;5013878;28;20049;-71
2021/05/02 12:21:36;;;;;;;16.60;2.40;;;16.90;78.90;;;;;;5011116;28;20423;-70
2021/05/02 12:24:04;;;;;;;12.05;2.30;;;17.00;77.80;;;;;;5013055;28;20394;-70
2021/05/02 12:26:30;;;;;;;19.40;3.30;;;17.10;77.60;;;;;;5013725;28;20437;-70
2021/05/02 12:28:58;;;;;;;20.55;2.78;;;17.10;77.50;;;;;;5013562;28;20052;-71
2021/05/02 12:31:25;;;;;;;21.27;3.10;;;17.10;76.70;;;;;;5013543;28;20034;-71
2021/05/02 12:33:51;;;;;;;14.73;2.80;;;17.10;76.70;;;;;;5013734;28;20033;-71
2021/05/02 12:36:18;;;;;;;24.73;3.08;;;17.10;76.80;;;;;;5013590;28;20079;-70
2021/05/02 12:38:43;;;;;;;18.20;2.70;;;17.10;77.00;;;;;;5013041;28;20040;-71
2021/05/02 12:41:17;;;;;;;18.98;4.03;;;17.10;76.40;;;;;;5013759;28;20018;-71
2021/05/02 12:43:49;;;;;;;16.50;2.72;;;17.10;75.60;;;;;;5011796;28;20038;-71
2021/05/02 12:46:34;;;;;;;15.70;2.63;;;17.10;74.40;;;;;;5013090;28;20044;-69
2021/05/02 12:49:07;;;;;;;14.80;2.90;;;17.10;74.80;;;;;;5012894;28;20022;-69
2021/05/02 12:51:33;;;;;;;14.35;2.50;;;17.00;74.40;;;;;;4995901;28;20057;-69
2021/05/02 12:54:09;;;;;;;15.70;2.55;;;17.00;73.40;;;;;;4993238;28;20379;-70